Tsurutama Maru No.2 — JD3586 — position and weather

sailwx.info

Track history (hours):
 
Tides and Currents Weather Stations Pressure Air Temp Water Temp Dewpoint Dewpoint Depression Visibility Wind Speed Wind Dir Waves Ship Positions

Tsurutama Maru No.2

Last reported at 2018-May-30 15:39 UTC. Time now 2018-Jun-20 22:40 UTC.
Position N 34°59' E 140°13'.
Warning: this ship's position is 21 days out of date.

Length 104 m; draft 5.6 m.

Type: Tanker. MMSI: 431004883.

Date/timePositionNaut miles runAvg speedWind from/ knotsBaromVisibWave heightAir tempDewpointWater temp
2018-May-30 15:39N 34°59' E 140°13'413.9
2018-May-30 15:22N 34°57' E 140°09'1812.6
2018-May-30 13:54N 34°51' E 139°48'613.8
2018-May-30 13:28N 34°55' E 139°43'714.1
2018-May-30 13:00N 35°02' E 139°43'714.5
2018-May-30 12:30N 35°09' E 139°45'713.5
2018-May-30 12:00N 35°16' E 139°46'713.4
2018-May-30 11:30N 35°21' E 139°42'4 7.1
2018-May-30 11:00N 35°24' E 139°40'0 0.0
2018-May-30 10:24N 35°24' E 139°40'0 0.0
2018-May-30 10:00N 35°24' E 139°40'0 0.0
2018-May-30 09:30N 35°24' E 139°40'0 0.0
2018-May-30 09:00N 35°24' E 139°40'0 0.0
2018-May-30 08:30N 35°24' E 139°40'0 0.0
2018-May-30 08:00N 35°24' E 139°40'0 0.0
2018-May-30 07:30N 35°24' E 139°40'0 0.0
2018-May-30 07:00N 35°24' E 139°40'0 0.0
2018-May-30 06:30N 35°24' E 139°40'0 0.0
2018-May-30 06:00N 35°24' E 139°40'0 0.0
2018-May-30 05:30N 35°24' E 139°40'0 0.0
2018-May-30 05:00N 35°24' E 139°40'0 0.0
2018-May-30 04:30N 35°24' E 139°40'0 0.0
2018-May-30 04:00N 35°24' E 139°40'0 0.0
2018-May-30 03:30N 35°24' E 139°40'0 0.0
2018-May-30 03:00N 35°24' E 139°40'0 0.0
2018-May-30 02:30N 35°24' E 139°40'0 0.0
2018-May-30 01:57N 35°24' E 139°40'0 0.3
2018-May-30 01:30N 35°24' E 139°39'3 5.4
2018-May-30 01:00N 35°22' E 139°42'510.9
2018-May-30 00:30N 35°18' E 139°45'611.9
2018-May-30 00:00N 35°12' E 139°46'713.7
2018-May-29 23:30N 35°05' E 139°44'713.6
2018-May-29 23:00N 34°59' E 139°41'913.5
2018-May-29 22:22N 34°51' E 139°37'10 0.3
2018-May-28 15:23N 34°58' E 139°29'513.0
2018-May-28 15:00N 35°01' E 139°34'713.4
2018-May-28 14:30N 35°06' E 139°40'713.4
2018-May-28 14:00N 35°11' E 139°45'611.9
2018-May-28 13:30N 35°17' E 139°45'612.7
2018-May-28 13:00N 35°23' E 139°42'713.0
2018-May-28 12:30N 35°27' E 139°48'612.9
2018-May-28 12:00N 35°30' E 139°55'3 0.5
2018-May-28 06:08N 35°28' E 139°52'214.0
2018-May-28 06:00N 35°27' E 139°50'713.8
2018-May-28 05:30N 35°24' E 139°43'3 5.3
2018-May-28 04:57N 35°24' E 139°40'0 0.0
2018-May-28 04:27N 35°24' E 139°40'0 0.0
2018-May-28 03:57N 35°24' E 139°40'0 0.0
2018-May-28 03:30N 35°24' E 139°40'0 0.0
2018-May-28 03:00N 35°24' E 139°40'0 0.0
2018-May-28 02:30N 35°24' E 139°40'0 0.0
2018-May-28 01:57N 35°24' E 139°40'0 0.0
2018-May-28 01:27N 35°24' E 139°40'0 0.0
2018-May-28 00:57N 35°24' E 139°40'0 0.0
2018-May-28 00:30N 35°24' E 139°40'0 0.0
2018-May-27 23:57N 35°24' E 139°40'0 0.0
2018-May-27 23:30N 35°24' E 139°40'1 1.3
2018-May-27 23:00N 35°24' E 139°40'2 3.2
2018-May-27 22:29N 35°22' E 139°41'0 0.0
2018-May-27 21:59N 35°22' E 139°41'0 0.1
2018-May-27 21:29N 35°22' E 139°41'0 0.1
2018-May-27 20:59N 35°22' E 139°41'0 0.0
2018-May-27 20:29N 35°22' E 139°41'0 0.1
2018-May-27 19:59N 35°22' E 139°41'0 0.0
2018-May-27 19:29N 35°22' E 139°41'0 0.0
2018-May-27 18:59N 35°22' E 139°41'0 0.0
2018-May-27 18:29N 35°22' E 139°41'0 0.1
2018-May-27 17:59N 35°22' E 139°41'0 0.1
2018-May-27 17:29N 35°22' E 139°41'0 0.0
2018-May-27 16:59N 35°22' E 139°41'0 0.0
2018-May-27 16:29N 35°22' E 139°41'0 0.0
2018-May-27 15:59N 35°22' E 139°41'0 0.1
2018-May-27 15:29N 35°22' E 139°41'0 0.0
2018-May-27 14:59N 35°22' E 139°41'0 0.0
2018-May-27 14:29N 35°22' E 139°41'0 0.0
2018-May-27 13:59N 35°22' E 139°41'0 0.1
2018-May-27 13:29N 35°22' E 139°41'0 0.0
2018-May-27 12:59N 35°22' E 139°41'0 0.0
2018-May-27 12:29N 35°22' E 139°41'0 0.1
2018-May-27 11:59N 35°22' E 139°41'0 0.0
2018-May-27 11:29N 35°22' E 139°41'0 0.0
2018-May-27 10:59N 35°22' E 139°41'0 0.1
2018-May-27 10:29N 35°22' E 139°41'0 0.1
2018-May-27 09:59N 35°22' E 139°41'0 0.0
2018-May-27 09:29N 35°22' E 139°41'0 0.0
2018-May-27 08:59N 35°22' E 139°41'0 0.1
2018-May-27 08:29N 35°22' E 139°41'0 0.0
2018-May-27 07:59N 35°22' E 139°41'0 0.0
2018-May-27 07:29N 35°22' E 139°41'0 0.0
2018-May-27 06:59N 35°22' E 139°41'0 0.0
2018-May-27 06:29N 35°22' E 139°41'0 0.0
2018-May-27 05:59N 35°22' E 139°41'0 0.0
2018-May-27 05:29N 35°22' E 139°41'0 0.0
2018-May-27 04:59N 35°22' E 139°41'0 0.1
2018-May-27 04:29N 35°22' E 139°41'0 0.0
2018-May-27 03:59N 35°22' E 139°41'0 0.1
2018-May-27 03:29N 35°22' E 139°41'0 0.1
2018-May-27 02:59N 35°22' E 139°41'0 0.1
2018-May-27 02:29N 35°22' E 139°41'0 0.0
2018-May-27 01:59N 35°22' E 139°41'0 0.0
2018-May-27 01:29N 35°22' E 139°41'0 0.1
2018-May-27 01:00N 35°22' E 139°41'2 4.3
2018-May-27 00:30N 35°21' E 139°42'713.2
2018-May-27 00:00N 35°15' E 139°47'612.8
2018-May-26 23:30N 35°09' E 139°46'713.4
2018-May-26 23:00N 35°02' E 139°45'712.3
2018-May-26 22:26N 34°55' E 139°44'  
Track history (hours):
 
Tides and Currents Weather Stations Pressure Air Temp Water Temp Dewpoint Dewpoint Depression Visibility Wind Speed Wind Dir Waves Ship Positions

Tsurutama Maru No.2

Last reported at 2018-May-30 15:39 UTC. Time now 2018-Jun-20 22:40 UTC.
Position N 34°59' E 140°13'.
Warning: this ship's position is 21 days out of date.

Length 104 m; draft 5.6 m.

Type: Tanker. MMSI: 431004883.

Date/timePositionNaut miles runAvg speedWind from/ knotsBaromVisibWave heightAir tempDewpointWater temp
2018-May-30 15:39N 34°59' E 140°13'413.9
2018-May-30 15:22N 34°57' E 140°09'1812.6
2018-May-30 13:54N 34°51' E 139°48'613.8
2018-May-30 13:28N 34°55' E 139°43'714.1
2018-May-30 13:00N 35°02' E 139°43'714.5
2018-May-30 12:30N 35°09' E 139°45'713.5
2018-May-30 12:00N 35°16' E 139°46'713.4
2018-May-30 11:30N 35°21' E 139°42'4 7.1
2018-May-30 11:00N 35°24' E 139°40'0 0.0
2018-May-30 10:24N 35°24' E 139°40'0 0.0
2018-May-30 10:00N 35°24' E 139°40'0 0.0
2018-May-30 09:30N 35°24' E 139°40'0 0.0
2018-May-30 09:00N 35°24' E 139°40'0 0.0
2018-May-30 08:30N 35°24' E 139°40'0 0.0
2018-May-30 08:00N 35°24' E 139°40'0 0.0
2018-May-30 07:30N 35°24' E 139°40'0 0.0
2018-May-30 07:00N 35°24' E 139°40'0 0.0
2018-May-30 06:30N 35°24' E 139°40'0 0.0
2018-May-30 06:00N 35°24' E 139°40'0 0.0
2018-May-30 05:30N 35°24' E 139°40'0 0.0
2018-May-30 05:00N 35°24' E 139°40'0 0.0
2018-May-30 04:30N 35°24' E 139°40'0 0.0
2018-May-30 04:00N 35°24' E 139°40'0 0.0
2018-May-30 03:30N 35°24' E 139°40'0 0.0
2018-May-30 03:00N 35°24' E 139°40'0 0.0
2018-May-30 02:30N 35°24' E 139°40'0 0.0
2018-May-30 01:57N 35°24' E 139°40'0 0.3
2018-May-30 01:30N 35°24' E 139°39'3 5.4
2018-May-30 01:00N 35°22' E 139°42'510.9
2018-May-30 00:30N 35°18' E 139°45'611.9
2018-May-30 00:00N 35°12' E 139°46'713.7
2018-May-29 23:30N 35°05' E 139°44'713.6
2018-May-29 23:00N 34°59' E 139°41'913.5
2018-May-29 22:22N 34°51' E 139°37'10 0.3
2018-May-28 15:23N 34°58' E 139°29'513.0
2018-May-28 15:00N 35°01' E 139°34'713.4
2018-May-28 14:30N 35°06' E 139°40'713.4
2018-May-28 14:00N 35°11' E 139°45'611.9
2018-May-28 13:30N 35°17' E 139°45'612.7
2018-May-28 13:00N 35°23' E 139°42'713.0
2018-May-28 12:30N 35°27' E 139°48'612.9
2018-May-28 12:00N 35°30' E 139°55'3 0.5
2018-May-28 06:08N 35°28' E 139°52'214.0
2018-May-28 06:00N 35°27' E 139°50'713.8
2018-May-28 05:30N 35°24' E 139°43'3 5.3
2018-May-28 04:57N 35°24' E 139°40'0 0.0
2018-May-28 04:27N 35°24' E 139°40'0 0.0
2018-May-28 03:57N 35°24' E 139°40'0 0.0
2018-May-28 03:30N 35°24' E 139°40'0 0.0
2018-May-28 03:00N 35°24' E 139°40'0 0.0
2018-May-28 02:30N 35°24' E 139°40'0 0.0
2018-May-28 01:57N 35°24' E 139°40'0 0.0
2018-May-28 01:27N 35°24' E 139°40'0 0.0
2018-May-28 00:57N 35°24' E 139°40'0 0.0
2018-May-28 00:30N 35°24' E 139°40'0 0.0
2018-May-27 23:57N 35°24' E 139°40'0 0.0
2018-May-27 23:30N 35°24' E 139°40'1 1.3
2018-May-27 23:00N 35°24' E 139°40'2 3.2
2018-May-27 22:29N 35°22' E 139°41'0 0.0
2018-May-27 21:59N 35°22' E 139°41'0 0.1
2018-May-27 21:29N 35°22' E 139°41'0 0.1
2018-May-27 20:59N 35°22' E 139°41'0 0.0
2018-May-27 20:29N 35°22' E 139°41'0 0.1
2018-May-27 19:59N 35°22' E 139°41'0 0.0
2018-May-27 19:29N 35°22' E 139°41'0 0.0
2018-May-27 18:59N 35°22' E 139°41'0 0.0
2018-May-27 18:29N 35°22' E 139°41'0 0.1
2018-May-27 17:59N 35°22' E 139°41'0 0.1
2018-May-27 17:29N 35°22' E 139°41'0 0.0
2018-May-27 16:59N 35°22' E 139°41'0 0.0
2018-May-27 16:29N 35°22' E 139°41'0 0.0
2018-May-27 15:59N 35°22' E 139°41'0 0.1
2018-May-27 15:29N 35°22' E 139°41'0 0.0
2018-May-27 14:59N 35°22' E 139°41'0 0.0
2018-May-27 14:29N 35°22' E 139°41'0 0.0
2018-May-27 13:59N 35°22' E 139°41'0 0.1
2018-May-27 13:29N 35°22' E 139°41'0 0.0
2018-May-27 12:59N 35°22' E 139°41'0 0.0
2018-May-27 12:29N 35°22' E 139°41'0 0.1
2018-May-27 11:59N 35°22' E 139°41'0 0.0
2018-May-27 11:29N 35°22' E 139°41'0 0.0
2018-May-27 10:59N 35°22' E 139°41'0 0.1
2018-May-27 10:29N 35°22' E 139°41'0 0.1
2018-May-27 09:59N 35°22' E 139°41'0 0.0
2018-May-27 09:29N 35°22' E 139°41'0 0.0
2018-May-27 08:59N 35°22' E 139°41'0 0.1
2018-May-27 08:29N 35°22' E 139°41'0 0.0
2018-May-27 07:59N 35°22' E 139°41'0 0.0
2018-May-27 07:29N 35°22' E 139°41'0 0.0
2018-May-27 06:59N 35°22' E 139°41'0 0.0
2018-May-27 06:29N 35°22' E 139°41'0 0.0
2018-May-27 05:59N 35°22' E 139°41'0 0.0
2018-May-27 05:29N 35°22' E 139°41'0 0.0
2018-May-27 04:59N 35°22' E 139°41'0 0.1
2018-May-27 04:29N 35°22' E 139°41'0 0.0
2018-May-27 03:59N 35°22' E 139°41'0 0.1
2018-May-27 03:29N 35°22' E 139°41'0 0.1
2018-May-27 02:59N 35°22' E 139°41'0 0.1
2018-May-27 02:29N 35°22' E 139°41'0 0.0
2018-May-27 01:59N 35°22' E 139°41'0 0.0
2018-May-27 01:29N 35°22' E 139°41'0 0.1
2018-May-27 01:00N 35°22' E 139°41'2 4.3
2018-May-27 00:30N 35°21' E 139°42'713.2
2018-May-27 00:00N 35°15' E 139°47'612.8
2018-May-26 23:30N 35°09' E 139°46'713.4
2018-May-26 23:00N 35°02' E 139°45'712.3
2018-May-26 22:26N 34°55' E 139°44'  

Dump ship's entire track history